createdAt,value
2022-10-05T00:00:16.088Z,1.20
2022-10-05T00:00:32.623Z,1.30
2022-10-05T00:00:51.794Z,1.25
2022-10-05T00:01:16.807Z,1.08
2022-10-05T00:01:34.578Z,1.10
2022-10-05T00:01:52.810Z,1.10
2022-10-05T00:02:14.121Z,1.10
2022-10-05T00:02:33.084Z,1.10
2022-10-05T00:02:50.656Z,1.20
2022-10-05T00:03:09.881Z,1.00
2022-10-05T00:03:30.226Z,1.08
2022-10-05T00:03:46.952Z,0.90
2022-10-05T00:04:11.387Z,0.80
2022-10-05T00:04:29.003Z,0.88
2022-10-05T00:04:47.146Z,0.98
2022-10-05T00:05:10.719Z,1.00
2022-10-05T00:05:29.448Z,1.08
2022-10-05T00:05:47.200Z,1.02
2022-10-05T00:06:04.919Z,1.05
2022-10-05T00:06:21.425Z,1.23
2022-10-05T00:06:38.000Z,1.20
2022-10-05T00:06:57.079Z,1.23
2022-10-05T00:07:16.234Z,1.15
2022-10-05T00:07:32.751Z,1.05
2022-10-05T00:07:49.287Z,1.13
2022-10-05T00:08:13.100Z,1.10
2022-10-05T00:08:30.641Z,0.88
2022-10-05T00:08:48.207Z,1.00
2022-10-05T00:09:10.813Z,0.93
2022-10-05T00:09:30.039Z,0.85
2022-10-05T00:09:51.451Z,0.80
2022-10-05T00:10:11.549Z,1.02
2022-10-05T00:10:30.113Z,1.10
2022-10-05T00:10:46.600Z,1.15
2022-10-05T00:11:06.361Z,1.15
2022-10-05T00:11:22.888Z,1.30
2022-10-05T00:11:39.469Z,1.13
2022-10-05T00:11:56.964Z,1.05
2022-10-05T00:12:14.536Z,1.38
2022-10-05T00:12:30.997Z,1.13
2022-10-05T00:12:48.257Z,1.30
2022-10-05T00:13:06.134Z,1.23
2022-10-05T00:13:23.868Z,0.90
2022-10-05T00:13:40.812Z,0.90
2022-10-05T00:13:58.913Z,1.10
2022-10-05T00:14:16.850Z,1.20
2022-10-05T00:14:35.237Z,1.00
2022-10-05T00:14:53.417Z,1.00
2022-10-05T00:15:10.992Z,1.10
2022-10-05T00:15:28.450Z,1.20
2022-10-05T00:15:44.964Z,1.20
2022-10-05T00:16:05.959Z,1.16
2022-10-05T00:16:22.546Z,0.95
2022-10-05T00:16:39.124Z,1.08
2022-10-05T00:16:56.052Z,1.13
2022-10-05T00:17:16.391Z,1.10
2022-10-05T00:17:32.875Z,1.15
2022-10-05T00:17:49.463Z,1.23
2022-10-05T00:18:11.168Z,1.40
2022-10-05T00:18:27.676Z,1.20
2022-10-05T00:18:47.205Z,1.27
2022-10-05T00:19:06.976Z,1.52
2022-10-05T00:19:27.192Z,1.30
2022-10-05T00:19:44.057Z,1.30
2022-10-05T00:20:02.954Z,0.98
2022-10-05T00:20:22.404Z,1.33
2022-10-05T00:20:40.283Z,1.38
2022-10-05T00:20:56.964Z,1.27
2022-10-05T00:21:18.067Z,1.38
2022-10-05T00:21:34.568Z,1.05
2022-10-05T00:21:51.060Z,1.05
2022-10-05T00:22:12.389Z,1.05
2022-10-05T00:22:29.862Z,1.13
2022-10-05T00:22:46.581Z,0.98
2022-10-05T00:23:07.473Z,0.90
2022-10-05T00:23:26.011Z,0.73
2022-10-05T00:23:42.476Z,0.80
2022-10-05T00:24:00.783Z,1.10
2022-10-05T00:24:19.656Z,1.50
2022-10-05T00:24:36.158Z,1.50
2022-10-05T00:24:57.179Z,1.65
2022-10-05T00:25:15.199Z,1.25
2022-10-05T00:25:31.665Z,1.13
2022-10-05T00:25:48.262Z,1.13
2022-10-05T00:26:10.719Z,0.93
2022-10-05T00:26:33.010Z,1.05
2022-10-05T00:26:55.402Z,1.16
2022-10-05T00:27:15.489Z,1.30
2022-10-05T00:27:32.788Z,1.33
2022-10-05T00:27:54.655Z,1.17
2022-10-05T00:28:15.596Z,1.33
2022-10-05T00:28:32.179Z,1.25
2022-10-05T00:28:48.732Z,0.95
2022-10-05T00:29:12.882Z,1.17
2022-10-05T00:29:30.410Z,1.15
2022-10-05T00:29:48.813Z,1.27
2022-10-05T00:30:11.469Z,1.25
2022-10-05T00:30:32.423Z,1.30
2022-10-05T00:30:49.934Z,0.90
2022-10-05T00:31:11.014Z,1.00
2022-10-05T00:31:30.670Z,0.98
2022-10-05T00:31:47.530Z,1.20
2022-10-05T00:32:04.158Z,1.15
2022-10-05T00:32:21.699Z,1.20
2022-10-05T00:32:38.192Z,1.30
2022-10-05T00:32:59.351Z,0.90
2022-10-05T00:33:16.257Z,0.95
2022-10-05T00:33:32.843Z,1.20
2022-10-05T00:33:49.420Z,1.38
2022-10-05T00:34:07.160Z,1.17
2022-10-05T00:34:23.649Z,0.75
2022-10-05T00:34:40.632Z,0.93
2022-10-05T00:34:57.228Z,1.08
2022-10-05T00:35:15.951Z,1.30
2022-10-05T00:35:35.695Z,1.23
2022-10-05T00:35:52.361Z,1.20
2022-10-05T00:36:09.188Z,1.10
2022-10-05T00:36:26.189Z,1.25
2022-10-05T00:36:43.149Z,1.17
2022-10-05T00:37:00.826Z,1.17
2022-10-05T00:37:17.326Z,1.23
2022-10-05T00:37:34.519Z,1.00
2022-10-05T00:37:53.250Z,0.90
2022-10-05T00:38:09.847Z,1.25
2022-10-05T00:38:29.073Z,1.30
2022-10-05T00:38:45.707Z,1.00
2022-10-05T00:39:02.197Z,1.08
2022-10-05T00:39:18.750Z,1.30
2022-10-05T00:39:36.716Z,1.40
2022-10-05T00:39:53.227Z,1.10
2022-10-05T00:40:15.688Z,1.00
2022-10-05T00:40:47.180Z,1.04
2022-10-05T00:41:05.809Z,1.20
2022-10-05T00:41:23.967Z,1.10
2022-10-05T00:41:46.529Z,1.10
2022-10-05T00:42:14.288Z,1.40
2022-10-05T00:42:39.091Z,1.55
2022-10-05T00:42:59.724Z,1.15
2022-10-05T00:43:26.106Z,1.35
2022-10-05T00:43:57.121Z,1.70
2022-10-05T00:44:21.370Z,1.30
2022-10-05T00:44:42.366Z,1.27
2022-10-05T00:45:02.153Z,1.30
2022-10-05T00:45:22.838Z,1.30
2022-10-05T00:45:42.917Z,1.42
2022-10-05T00:46:03.064Z,1.25
2022-10-05T00:46:22.310Z,1.38
2022-10-05T00:46:44.101Z,1.33
2022-10-05T00:47:07.957Z,1.45
2022-10-05T00:47:31.730Z,1.42
2022-10-05T00:47:51.469Z,0.98
2022-10-05T00:48:11.863Z,0.98
2022-10-05T00:48:30.808Z,1.40
2022-10-05T00:48:51.740Z,1.42
2022-10-05T00:49:11.605Z,1.23
2022-10-05T00:49:38.140Z,1.40
2022-10-05T00:50:03.055Z,1.38
2022-10-05T00:50:35.012Z,1.30
2022-10-05T00:51:01.251Z,1.52
2022-10-05T00:51:22.725Z,1.40
2022-10-05T00:51:41.551Z,1.85
2022-10-05T00:52:02.393Z,1.40
2022-10-05T00:52:27.499Z,1.30
2022-10-05T00:52:48.718Z,1.15
2022-10-05T00:53:10.599Z,1.40
2022-10-05T00:53:33.599Z,1.50
2022-10-05T00:53:55.447Z,1.38
2022-10-05T00:54:18.654Z,1.48
2022-10-05T00:54:40.701Z,1.45
2022-10-05T00:54:59.765Z,1.20
2022-10-05T00:55:19.985Z,1.50
2022-10-05T00:55:42.194Z,1.65
2022-10-05T00:56:01.208Z,1.30
2022-10-05T00:56:24.112Z,1.50
2022-10-05T00:56:46.860Z,1.40
2022-10-05T00:57:13.686Z,1.10
2022-10-05T00:57:40.213Z,1.25
2022-10-05T00:58:02.945Z,1.50
2022-10-05T00:58:27.857Z,1.13
2022-10-05T00:58:51.437Z,1.35
2022-10-05T00:59:15.089Z,1.17
2022-10-05T00:59:40.047Z,1.38
2022-10-05T01:00:00.965Z,1.40
2022-10-05T01:00:19.214Z,1.20
2022-10-05T01:00:41.269Z,1.30
2022-10-05T01:01:01.227Z,2.00
2022-10-05T01:01:21.290Z,1.38
2022-10-05T01:01:41.283Z,1.33
2022-10-05T01:02:00.637Z,1.30
2022-10-05T01:02:22.950Z,1.08
2022-10-05T01:02:44.489Z,1.08
2022-10-05T01:03:04.115Z,1.40
2022-10-05T01:03:25.078Z,1.58
2022-10-05T01:03:49.183Z,1.40
2022-10-05T01:04:12.895Z,1.30
2022-10-05T01:04:36.033Z,1.20
2022-10-05T01:04:54.291Z,1.10
2022-10-05T01:05:13.754Z,1.30
2022-10-05T01:05:44.765Z,1.40
2022-10-05T01:06:07.143Z,1.73
2022-10-05T01:06:29.760Z,1.20
2022-10-05T01:06:53.565Z,1.35
2022-10-05T01:07:15.811Z,1.60
2022-10-05T01:07:37.066Z,1.35
2022-10-05T01:08:00.413Z,1.52
2022-10-05T01:08:21.824Z,1.35
2022-10-05T01:08:44.366Z,1.67
2022-10-05T01:09:08.844Z,1.48
2022-10-05T01:09:31.370Z,1.30
2022-10-05T01:09:52.190Z,1.25
2022-10-05T01:10:15.858Z,1.65
2022-10-05T01:10:37.217Z,1.52
2022-10-05T01:10:59.388Z,1.17
2022-10-05T01:11:19.314Z,1.42
2022-10-05T01:11:39.567Z,1.56
2022-10-05T01:12:01.581Z,1.30
2022-10-05T01:12:22.360Z,1.25
2022-10-05T01:12:42.893Z,2.35
2022-10-05T01:13:04.609Z,2.35
2022-10-05T01:13:25.425Z,1.30
2022-10-05T01:13:48.401Z,2.10
2022-10-05T01:14:12.268Z,1.58
2022-10-05T01:14:32.443Z,1.70
2022-10-05T01:14:52.646Z,1.70
2022-10-05T01:15:13.133Z,1.70
2022-10-05T01:15:31.893Z,1.63
2022-10-05T01:15:50.975Z,1.50
2022-10-05T01:16:10.730Z,1.50
2022-10-05T01:16:30.147Z,1.42
2022-10-05T01:16:51.694Z,1.48
2022-10-05T01:17:12.235Z,1.42
2022-10-05T01:17:31.142Z,1.73
2022-10-05T01:17:49.625Z,1.58
2022-10-05T01:18:09.807Z,1.15
2022-10-05T01:18:29.041Z,1.20
2022-10-05T01:18:48.623Z,1.20
2022-10-05T01:19:10.765Z,1.20
2022-10-05T01:19:39.650Z,1.30
2022-10-05T01:20:14.505Z,1.73
2022-10-05T01:20:35.730Z,1.40
2022-10-05T01:20:57.169Z,1.20
2022-10-05T01:21:17.607Z,1.35
2022-10-05T01:21:36.007Z,1.63
2022-10-05T01:21:53.943Z,1.35
2022-10-05T01:22:15.318Z,1.23
2022-10-05T01:22:38.939Z,1.48
2022-10-05T01:23:08.770Z,1.58
2022-10-05T01:23:40.318Z,1.30
2022-10-05T01:24:15.386Z,1.15
2022-10-05T01:24:40.099Z,1.30
2022-10-05T01:25:01.933Z,1.20
2022-10-05T01:25:23.746Z,1.70
2022-10-05T01:25:47.308Z,1.63
2022-10-05T01:26:11.907Z,1.58
2022-10-05T01:26:40.082Z,1.42
2022-10-05T01:27:17.326Z,1.60
2022-10-05T01:27:48.636Z,1.40
2022-10-05T01:28:10.104Z,1.50
2022-10-05T01:28:30.275Z,1.50
2022-10-05T01:28:48.089Z,1.35
2022-10-05T01:29:08.994Z,1.45
2022-10-05T01:29:28.935Z,1.52
2022-10-05T01:29:50.561Z,1.25
2022-10-05T01:30:10.792Z,1.40
2022-10-05T01:30:29.762Z,1.20
2022-10-05T01:30:52.690Z,1.10
2022-10-05T01:31:12.333Z,1.35
2022-10-05T01:31:33.262Z,1.55
2022-10-05T01:31:54.932Z,1.52
2022-10-05T01:32:14.970Z,1.77
2022-10-05T01:32:33.670Z,2.15
2022-10-05T01:32:55.104Z,2.20
2022-10-05T01:33:16.769Z,1.50
2022-10-05T01:33:37.726Z,1.70
2022-10-05T01:33:55.838Z,1.50
2022-10-05T01:34:16.751Z,1.23
2022-10-05T01:34:35.882Z,1.90
2022-10-05T01:34:58.552Z,2.10
2022-10-05T01:35:21.419Z,1.85
2022-10-05T01:35:43.041Z,2.20
2022-10-05T01:36:02.569Z,1.77
2022-10-05T01:36:24.467Z,1.48
2022-10-05T01:36:46.728Z,1.48
2022-10-05T01:37:07.066Z,1.38
2022-10-05T01:37:27.447Z,1.60
2022-10-05T01:37:49.271Z,1.42
2022-10-05T01:38:12.204Z,1.80
2022-10-05T01:38:35.062Z,2.00
2022-10-05T01:38:58.124Z,1.40
2022-10-05T01:39:17.274Z,1.70
2022-10-05T01:39:38.232Z,1.67
2022-10-05T01:39:59.079Z,1.90
2022-10-05T01:40:19.286Z,1.75
2022-10-05T01:40:39.210Z,1.25
2022-10-05T01:41:01.830Z,1.58
2022-10-05T01:41:27.588Z,1.67
2022-10-05T01:41:47.434Z,1.58
2022-10-05T01:42:09.781Z,1.42
2022-10-05T01:42:29.148Z,1.48
2022-10-05T01:42:52.136Z,1.48
2022-10-05T01:43:13.980Z,1.90
2022-10-05T01:43:39.097Z,1.50
2022-10-05T01:43:58.130Z,1.25
2022-10-05T01:44:16.288Z,1.20
2022-10-05T01:44:38.112Z,1.25
2022-10-05T01:44:59.206Z,1.52
2022-10-05T01:45:20.674Z,1.48
2022-10-05T01:45:44.440Z,1.52
2022-10-05T01:46:06.964Z,1.70
2022-10-05T01:46:25.219Z,1.65
2022-10-05T01:46:45.019Z,1.67
2022-10-05T01:47:06.803Z,1.40
2022-10-05T01:47:29.723Z,1.75
2022-10-05T01:47:48.020Z,1.48
2022-10-05T01:48:07.689Z,1.42
2022-10-05T01:48:31.190Z,1.63
2022-10-05T01:48:52.791Z,1.32
2022-10-05T01:49:17.288Z,1.67
2022-10-05T01:49:36.902Z,1.38
2022-10-05T01:50:00.537Z,1.50
2022-10-05T01:50:22.781Z,1.50
2022-10-05T01:50:44.348Z,1.95
2022-10-05T01:51:04.297Z,1.92
2022-10-05T01:51:26.269Z,1.63
2022-10-05T01:51:47.775Z,1.52
2022-10-05T01:52:26.863Z,1.83
2022-10-05T01:52:47.216Z,1.45
2022-10-05T01:53:06.933Z,1.40
2022-10-05T01:53:27.847Z,1.17
2022-10-05T01:53:49.736Z,1.60
2022-10-05T01:54:11.093Z,1.35
2022-10-05T01:54:33.276Z,1.50
2022-10-05T01:54:58.725Z,1.40
2022-10-05T01:55:18.752Z,1.40
2022-10-05T01:55:39.110Z,1.23
2022-10-05T01:56:01.905Z,1.25
2022-10-05T01:56:21.980Z,1.30
2022-10-05T01:56:41.730Z,1.48
2022-10-05T01:57:04.247Z,1.60
2022-10-05T01:57:25.892Z,1.40
2022-10-05T01:57:46.265Z,1.20
2022-10-05T01:58:07.740Z,1.48
2022-10-05T01:58:32.892Z,1.50
2022-10-05T01:58:55.233Z,1.52
2022-10-05T01:59:19.875Z,1.60
2022-10-05T01:59:42.688Z,1.48
2022-10-05T02:00:28.519Z,1.90
2022-10-05T02:00:52.931Z,1.70
2022-10-05T02:01:14.072Z,1.80
2022-10-05T02:01:32.229Z,1.75
2022-10-05T02:01:51.569Z,1.65
2022-10-05T02:02:10.864Z,1.50
2022-10-05T02:02:30.097Z,1.92
2022-10-05T02:02:48.081Z,1.90
2022-10-05T02:03:08.434Z,1.80
2022-10-05T02:03:26.705Z,2.00
2022-10-05T02:03:45.215Z,1.60
2022-10-05T02:04:05.302Z,1.30
2022-10-05T02:04:56.534Z,1.48
2022-10-05T02:05:04.519Z,1.55
2022-10-05T02:05:21.659Z,1.08
2022-10-05T02:05:42.193Z,0.95
2022-10-05T02:06:01.767Z,1.20
2022-10-05T02:06:20.818Z,1.23
2022-10-05T02:06:40.607Z,1.20
2022-10-05T02:06:59.158Z,1.40
2022-10-05T02:07:18.234Z,1.35
2022-10-05T02:07:36.812Z,2.13
2022-10-05T02:07:54.555Z,1.70
2022-10-05T02:08:12.326Z,1.20
2022-10-05T02:08:32.503Z,1.20
2022-10-05T02:08:50.693Z,1.33
2022-10-05T02:09:13.309Z,1.60
2022-10-05T02:09:32.069Z,1.60
2022-10-05T02:09:51.275Z,1.55
2022-10-05T02:10:12.124Z,1.90
2022-10-05T02:10:31.988Z,1.75
2022-10-05T02:10:53.421Z,1.48
2022-10-05T02:11:12.026Z,1.85
2022-10-05T02:11:28.567Z,1.38
2022-10-05T02:11:54.845Z,1.48
2022-10-05T02:12:15.226Z,1.83
2022-10-05T02:12:35.274Z,2.25
2022-10-05T02:12:54.361Z,1.48
2022-10-05T02:13:14.466Z,1.63
2022-10-05T02:13:32.520Z,1.98
2022-10-05T02:13:52.501Z,1.58
2022-10-05T02:14:10.847Z,1.23
2022-10-05T02:14:31.023Z,1.52
2022-10-05T02:14:49.923Z,1.80
2022-10-05T02:15:10.345Z,1.73
2022-10-05T02:15:28.975Z,1.20
2022-10-05T02:15:47.562Z,1.52
2022-10-05T02:16:07.088Z,1.30
2022-10-05T02:16:26.116Z,1.13
2022-10-05T02:16:43.772Z,1.77
2022-10-05T02:17:05.502Z,1.55
2022-10-05T02:17:25.178Z,1.35
2022-10-05T02:17:43.517Z,1.80
2022-10-05T02:18:03.385Z,1.92
2022-10-05T02:18:22.951Z,1.20
2022-10-05T02:18:42.870Z,1.60
2022-10-05T02:19:02.039Z,1.60
2022-10-05T02:19:21.337Z,1.55
2022-10-05T02:19:39.731Z,1.30
2022-10-05T02:20:00.230Z,1.42
2022-10-05T02:20:20.775Z,1.25
2022-10-05T02:20:38.255Z,1.42
2022-10-05T02:20:55.498Z,1.70
2022-10-05T02:21:13.115Z,1.80
2022-10-05T02:21:30.839Z,1.73
2022-10-05T02:21:49.549Z,1.52
2022-10-05T02:22:07.418Z,1.70
2022-10-05T02:22:29.677Z,1.55
2022-10-05T02:22:48.413Z,1.40
2022-10-05T02:23:07.371Z,1.70
2022-10-05T02:23:26.447Z,1.62
2022-10-05T02:23:44.681Z,1.80
2022-10-05T02:24:03.985Z,1.73
2022-10-05T02:24:24.341Z,2.20
2022-10-05T02:24:42.797Z,1.80
2022-10-05T02:25:00.830Z,1.70
2022-10-05T02:25:19.753Z,1.70
2022-10-05T02:25:38.196Z,1.63
2022-10-05T02:25:57.037Z,1.80
2022-10-05T02:26:14.488Z,1.60
2022-10-05T02:26:32.163Z,1.80
2022-10-05T02:26:49.813Z,1.80
2022-10-05T02:27:08.427Z,1.40
2022-10-05T02:27:27.329Z,2.00
2022-10-05T02:27:47.016Z,1.90
2022-10-05T02:28:05.816Z,1.70
2022-10-05T02:28:27.568Z,1.55
2022-10-05T02:28:47.561Z,1.95
2022-10-05T02:29:06.824Z,1.90
2022-10-05T02:29:24.528Z,1.70
2022-10-05T02:29:45.274Z,1.50
2022-10-05T02:30:04.073Z,1.55
2022-10-05T02:30:30.659Z,1.88
2022-10-05T02:30:50.268Z,1.60
2022-10-05T02:31:09.302Z,1.40
2022-10-05T02:31:29.002Z,1.33
2022-10-05T02:31:47.725Z,1.60
2022-10-05T02:32:07.790Z,1.95
2022-10-05T02:32:25.730Z,1.73
2022-10-05T02:32:44.865Z,1.65
2022-10-05T02:33:02.586Z,1.45
2022-10-05T02:33:23.320Z,1.42
2022-10-05T02:33:40.990Z,1.52
2022-10-05T02:34:23.647Z,1.40
2022-10-05T02:34:42.552Z,1.20
2022-10-05T02:35:13.385Z,1.75
2022-10-05T02:35:29.950Z,1.67
2022-10-05T02:35:47.750Z,1.85
2022-10-05T02:36:11.070Z,1.88
2022-10-05T02:36:31.388Z,1.83
2022-10-05T02:36:50.058Z,1.80
2022-10-05T02:37:13.967Z,1.80
2022-10-05T02:37:36.500Z,1.77
2022-10-05T02:38:00.886Z,1.56
2022-10-05T02:38:19.464Z,1.70
2022-10-05T02:38:42.004Z,1.42
2022-10-05T02:39:02.892Z,1.48
2022-10-05T02:39:25.431Z,1.77
2022-10-05T02:39:47.466Z,1.98
2022-10-05T02:40:12.733Z,1.92
2022-10-05T02:40:35.692Z,1.88
2022-10-05T02:40:57.103Z,1.70
2022-10-05T02:41:16.366Z,1.67
2022-10-05T02:41:41.827Z,1.38
2022-10-05T02:42:03.905Z,1.75
2022-10-05T02:42:24.207Z,1.77
2022-10-05T02:42:47.749Z,1.80
2022-10-05T02:43:10.252Z,1.30
2022-10-05T02:43:38.883Z,1.60
2022-10-05T02:43:59.953Z,1.67
2022-10-05T02:44:25.037Z,2.05
2022-10-05T02:44:45.586Z,1.75
2022-10-05T02:45:10.566Z,1.70
2022-10-05T02:45:32.902Z,2.50
2022-10-05T02:45:53.657Z,2.22
2022-10-05T02:46:15.397Z,1.85
2022-10-05T02:46:36.646Z,1.70
2022-10-05T02:46:59.500Z,1.90
2022-10-05T02:47:22.663Z,1.75
2022-10-05T02:47:41.795Z,1.50
2022-10-05T02:48:04.483Z,1.58
2022-10-05T02:48:26.136Z,1.80
2022-10-05T02:48:48.496Z,1.70
2022-10-05T02:49:12.322Z,1.50
2022-10-05T02:49:32.494Z,1.48
2022-10-05T02:49:52.951Z,1.40
2022-10-05T02:50:13.358Z,1.77
2022-10-05T02:50:37.558Z,1.96
2022-10-05T02:50:59.086Z,1.67
2022-10-05T02:51:20.776Z,2.10
2022-10-05T02:51:41.559Z,1.77
2022-10-05T02:52:02.600Z,1.70
2022-10-05T02:52:22.827Z,1.65
2022-10-05T02:52:43.798Z,1.88
2022-10-05T02:53:08.888Z,1.88
2022-10-05T02:53:28.857Z,2.10
2022-10-05T02:53:51.338Z,2.30
2022-10-05T02:54:12.558Z,2.50
2022-10-05T02:54:34.343Z,2.22
2022-10-05T02:54:55.592Z,2.05
2022-10-05T02:55:16.935Z,1.70
2022-10-05T02:55:36.541Z,2.00
2022-10-05T02:55:57.134Z,1.58
2022-10-05T02:56:19.405Z,1.83
2022-10-05T02:56:39.304Z,1.80
2022-10-05T02:56:58.705Z,2.38
2022-10-05T02:57:20.437Z,1.83
2022-10-05T02:57:39.101Z,1.77
2022-10-05T02:57:59.126Z,1.85
2022-10-05T02:58:19.744Z,1.73
2022-10-05T02:58:42.661Z,1.78
2022-10-05T02:59:02.452Z,1.60
2022-10-05T02:59:22.009Z,1.85
2022-10-05T02:59:41.568Z,2.08
2022-10-05T03:00:04.004Z,1.95
2022-10-05T03:00:22.575Z,1.73
2022-10-05T03:00:41.954Z,1.85
2022-10-05T03:01:00.298Z,1.56
2022-10-05T03:01:20.705Z,1.73
2022-10-05T03:01:39.547Z,1.83
2022-10-05T03:01:58.392Z,1.60
2022-10-05T03:02:17.395Z,1.67
2022-10-05T03:02:37.142Z,2.08
2022-10-05T03:03:02.868Z,2.20
2022-10-05T03:03:23.527Z,1.65
2022-10-05T03:03:43.047Z,1.77
2022-10-05T03:04:05.080Z,2.08
2022-10-05T03:04:27.280Z,1.80
2022-10-05T03:04:48.603Z,1.40
2022-10-05T03:05:10.438Z,1.67
2022-10-05T03:05:30.770Z,1.63
2022-10-05T03:05:51.286Z,1.70
2022-10-05T03:06:12.073Z,1.52
2022-10-05T03:06:32.744Z,1.30
2022-10-05T03:06:52.978Z,1.60
2022-10-05T03:07:14.222Z,1.75
2022-10-05T03:07:33.025Z,2.25
2022-10-05T03:07:56.607Z,1.85
2022-10-05T03:08:16.484Z,1.88
2022-10-05T03:08:37.020Z,2.28
2022-10-05T03:08:57.882Z,1.90
2022-10-05T03:09:16.203Z,1.88
2022-10-05T03:09:37.269Z,2.30
2022-10-05T03:10:00.887Z,2.25
2022-10-05T03:10:23.399Z,2.10
2022-10-05T03:10:47.837Z,1.60
2022-10-05T03:11:09.103Z,1.90
2022-10-05T03:11:30.201Z,2.47
2022-10-05T03:11:51.514Z,1.98
2022-10-05T03:12:12.628Z,1.90
2022-10-05T03:12:40.878Z,1.70
2022-10-05T03:13:01.092Z,2.05
2022-10-05T03:13:22.513Z,1.92
2022-10-05T03:13:47.008Z,2.17
2022-10-05T03:14:08.526Z,1.80
2022-10-05T03:14:26.983Z,1.70
2022-10-05T03:14:48.984Z,1.98
2022-10-05T03:15:10.930Z,1.80
2022-10-05T03:15:43.567Z,1.85
2022-10-05T03:16:07.670Z,1.65
2022-10-05T03:16:29.483Z,1.50
2022-10-05T03:16:50.514Z,1.67
2022-10-05T03:17:09.962Z,1.90
2022-10-05T03:17:30.796Z,1.58
2022-10-05T03:17:50.499Z,1.73
2022-10-05T03:18:12.138Z,1.88
2022-10-05T03:18:36.713Z,1.60
2022-10-05T03:18:59.592Z,1.50
2022-10-05T03:19:22.207Z,1.60
2022-10-05T03:19:47.808Z,1.63
2022-10-05T03:20:11.200Z,1.40
2022-10-05T03:20:34.537Z,2.08
2022-10-05T03:20:54.944Z,1.95
2022-10-05T03:21:19.874Z,1.85
2022-10-05T03:21:44.016Z,1.60
2022-10-05T03:22:05.990Z,1.67
2022-10-05T03:22:30.606Z,1.70
2022-10-05T03:22:49.531Z,1.40
2022-10-05T03:23:11.386Z,1.75
2022-10-05T03:23:32.458Z,1.70
2022-10-05T03:23:53.277Z,2.20
2022-10-05T03:24:19.900Z,2.30
2022-10-05T03:24:41.562Z,1.80
2022-10-05T03:25:11.584Z,1.42
2022-10-05T03:25:36.157Z,2.00
2022-10-05T03:26:02.387Z,2.13
2022-10-05T03:26:26.418Z,1.65
2022-10-05T03:26:49.120Z,2.42
2022-10-05T03:27:12.891Z,1.83
2022-10-05T03:27:34.643Z,1.75
2022-10-05T03:27:55.633Z,2.20
2022-10-05T03:28:15.643Z,1.60
2022-10-05T03:28:34.540Z,1.65
2022-10-05T03:28:58.815Z,2.08
2022-10-05T03:29:21.877Z,2.13
2022-10-05T03:29:40.535Z,1.90
2022-10-05T03:30:01.294Z,1.88
2022-10-05T03:30:19.428Z,2.10
2022-10-05T03:30:42.347Z,1.83
2022-10-05T03:31:00.959Z,1.77
2022-10-05T03:31:20.588Z,1.80
2022-10-05T03:31:40.592Z,2.03
2022-10-05T03:32:01.511Z,1.63
2022-10-05T03:32:22.288Z,2.05
2022-10-05T03:32:45.327Z,2.17
2022-10-05T03:33:03.541Z,1.98
2022-10-05T03:33:26.028Z,1.80
2022-10-05T03:33:47.702Z,1.85
2022-10-05T03:34:06.433Z,1.90
2022-10-05T03:34:28.030Z,1.80
2022-10-05T03:34:46.471Z,1.65
2022-10-05T03:35:07.201Z,1.80
2022-10-05T03:35:28.893Z,2.00
2022-10-05T03:35:49.028Z,1.92
2022-10-05T03:36:11.399Z,2.00
2022-10-05T03:36:30.511Z,1.75
2022-10-05T03:36:49.705Z,1.78
2022-10-05T03:37:10.013Z,1.95
2022-10-05T03:37:31.135Z,1.68
2022-10-05T03:37:50.196Z,1.83
2022-10-05T03:38:10.518Z,2.00
2022-10-05T03:38:30.927Z,1.96
2022-10-05T03:38:50.840Z,1.88
2022-10-05T03:39:10.658Z,1.95
2022-10-05T03:39:29.224Z,1.98
2022-10-05T03:39:49.270Z,1.85
2022-10-05T03:40:09.801Z,1.83
2022-10-05T03:40:31.902Z,1.90
2022-10-05T03:40:51.553Z,2.33
2022-10-05T03:41:12.551Z,2.08
2022-10-05T03:41:32.935Z,1.90
2022-10-05T03:41:53.780Z,2.05
2022-10-05T03:42:16.337Z,1.65
2022-10-05T03:42:37.643Z,1.80
2022-10-05T03:43:01.718Z,2.38
2022-10-05T03:43:27.350Z,2.03
2022-10-05T03:43:53.144Z,1.60
2022-10-05T03:44:16.581Z,1.80
2022-10-05T03:44:37.044Z,1.90
2022-10-05T03:44:57.922Z,1.92
2022-10-05T03:45:22.859Z,2.10
2022-10-05T03:45:42.437Z,2.20
2022-10-05T03:46:02.683Z,1.98
2022-10-05T03:46:22.616Z,1.80
2022-10-05T03:46:45.926Z,1.83
2022-10-05T03:47:07.629Z,2.10
2022-10-05T03:47:28.093Z,1.83
2022-10-05T03:47:46.762Z,2.33
2022-10-05T03:48:05.591Z,1.98
2022-10-05T03:48:30.002Z,1.85
2022-10-05T03:48:49.972Z,2.30
2022-10-05T03:49:09.396Z,1.98
2022-10-05T03:49:29.607Z,1.85
2022-10-05T03:49:50.865Z,2.08
2022-10-05T03:50:23.475Z,2.13
2022-10-05T03:50:44.446Z,2.60
2022-10-05T03:51:05.596Z,1.85
2022-10-05T03:51:24.121Z,1.60
2022-10-05T03:51:43.416Z,1.80
2022-10-05T03:52:02.083Z,2.03
2022-10-05T03:52:22.074Z,2.38
2022-10-05T03:52:42.234Z,1.95
2022-10-05T03:53:01.309Z,1.73
2022-10-05T03:53:19.432Z,2.17
2022-10-05T03:53:39.823Z,2.30
2022-10-05T03:53:58.131Z,1.98
2022-10-05T03:54:17.864Z,1.70
2022-10-05T03:54:37.562Z,1.90
2022-10-05T03:54:56.847Z,2.13
2022-10-05T03:55:17.366Z,2.53
2022-10-05T03:55:36.122Z,2.25
2022-10-05T03:55:56.428Z,1.60
2022-10-05T03:56:16.529Z,1.98
2022-10-05T03:56:35.840Z,1.83
2022-10-05T03:56:54.566Z,1.52
2022-10-05T03:57:15.417Z,1.95
2022-10-05T03:57:35.068Z,2.50
2022-10-05T03:57:54.534Z,2.30
2022-10-05T03:58:13.758Z,1.85
2022-10-05T03:58:32.932Z,1.95
2022-10-05T03:58:54.389Z,1.90
2022-10-05T03:59:15.647Z,2.67
2022-10-05T03:59:34.758Z,2.20
2022-10-05T03:59:56.553Z,2.45
2022-10-05T04:00:15.969Z,1.98
2022-10-05T04:00:38.933Z,1.83
2022-10-05T04:00:58.308Z,1.90
2022-10-05T04:01:17.166Z,1.98
2022-10-05T04:01:40.416Z,2.08
2022-10-05T04:01:59.062Z,2.38
2022-10-05T04:02:18.973Z,2.38
2022-10-05T04:02:38.748Z,2.03
2022-10-05T04:02:57.336Z,1.80
2022-10-05T04:03:17.834Z,2.10
2022-10-05T04:03:36.314Z,2.20
2022-10-05T04:03:54.911Z,2.08
2022-10-05T04:04:14.710Z,1.70
2022-10-05T04:04:33.143Z,1.90
2022-10-05T04:04:53.491Z,1.85
2022-10-05T04:05:13.702Z,1.70
2022-10-05T04:05:32.489Z,1.40
2022-10-05T04:05:50.568Z,1.80
2022-10-05T04:06:10.134Z,2.38
2022-10-05T04:06:27.636Z,2.17
2022-10-05T04:06:46.727Z,2.03
2022-10-05T04:07:05.178Z,1.75
2022-10-05T04:07:27.668Z,1.83
2022-10-05T04:07:46.788Z,1.60
2022-10-05T04:08:08.842Z,1.70
2022-10-05T04:08:29.270Z,1.85
2022-10-05T04:08:49.552Z,1.98
2022-10-05T04:09:11.323Z,1.73
2022-10-05T04:09:30.283Z,1.95
2022-10-05T04:09:47.746Z,2.13
2022-10-05T04:10:08.114Z,1.67
2022-10-05T04:10:26.203Z,1.88
2022-10-05T04:10:45.388Z,2.10
2022-10-05T04:11:04.616Z,1.77
2022-10-05T04:11:24.844Z,2.00
2022-10-05T04:11:45.541Z,2.22
2022-10-05T04:12:06.546Z,2.00
2022-10-05T04:12:24.115Z,1.88
2022-10-05T04:12:42.631Z,1.80
2022-10-05T04:13:02.336Z,2.00
2022-10-05T04:13:23.247Z,2.25
2022-10-05T04:13:42.243Z,1.95
2022-10-05T04:14:01.024Z,2.63
2022-10-05T04:14:21.625Z,2.47
2022-10-05T04:14:40.504Z,2.25
2022-10-05T04:14:59.436Z,1.95
2022-10-05T04:15:19.424Z,2.08
2022-10-05T04:15:39.951Z,1.95
2022-10-05T04:15:59.668Z,1.60
2022-10-05T04:16:21.627Z,2.08
2022-10-05T04:16:40.605Z,1.95
2022-10-05T04:16:58.837Z,2.10
2022-10-05T04:17:17.005Z,2.33
2022-10-05T04:17:38.010Z,2.25
2022-10-05T04:17:57.433Z,2.20
2022-10-05T04:18:21.800Z,1.98
2022-10-05T04:18:39.514Z,1.77
2022-10-05T04:18:59.352Z,2.20
2022-10-05T04:19:19.161Z,2.20
2022-10-05T04:19:39.035Z,2.22
2022-10-05T04:19:58.659Z,2.20
2022-10-05T04:20:18.441Z,2.22
2022-10-05T04:20:37.720Z,1.95
2022-10-05T04:20:56.153Z,2.33
2022-10-05T04:21:23.369Z,2.30
2022-10-05T04:21:45.881Z,2.08
2022-10-05T04:22:06.251Z,2.15
2022-10-05T04:22:25.433Z,2.85
2022-10-05T04:22:46.177Z,2.28
2022-10-05T04:23:08.802Z,2.13
2022-10-05T04:23:30.565Z,1.88
2022-10-05T04:23:49.707Z,2.38
2022-10-05T04:24:11.164Z,2.25
2022-10-05T04:24:32.065Z,2.03
2022-10-05T04:24:51.013Z,1.80
2022-10-05T04:25:13.474Z,2.40
2022-10-05T04:25:34.691Z,2.10
2022-10-05T04:25:53.916Z,2.10
2022-10-05T04:26:15.080Z,2.17
2022-10-05T04:26:35.725Z,2.30
2022-10-05T04:26:53.467Z,2.22
2022-10-05T04:27:12.470Z,1.95
2022-10-05T04:27:31.417Z,1.92
2022-10-05T04:27:52.918Z,2.33
2022-10-05T04:28:11.911Z,2.30
2022-10-05T04:28:41.184Z,2.20
2022-10-05T04:29:00.942Z,1.90
2022-10-05T04:29:26.596Z,1.88
2022-10-05T04:29:47.704Z,1.90
2022-10-05T04:30:08.099Z,2.20
2022-10-05T04:30:25.286Z,2.15
2022-10-05T04:30:47.374Z,2.40
2022-10-05T04:31:05.526Z,2.18
2022-10-05T04:31:29.540Z,2.13
2022-10-05T04:31:52.049Z,2.28
2022-10-05T04:32:17.548Z,2.42
2022-10-05T04:32:36.530Z,2.58
2022-10-05T04:32:55.369Z,2.20
2022-10-05T04:33:16.045Z,2.33
2022-10-05T04:33:35.387Z,1.98
2022-10-05T04:33:58.321Z,2.20
2022-10-05T04:34:17.866Z,2.50
2022-10-05T04:34:41.076Z,2.42
2022-10-05T04:35:02.961Z,2.92
2022-10-05T04:35:28.591Z,2.42
2022-10-05T04:35:51.979Z,2.10
2022-10-05T04:36:13.979Z,2.13
2022-10-05T04:36:33.788Z,2.20
2022-10-05T04:36:54.478Z,1.95